Flight Track Log - Related Links

Times and Time Zones

All times are in EDT time to prevent confusion due to time zone crossing. See the GJS3707 flight status page for this flight to view local times or setup timezone preferences in your user account.

Time Position Orientation Groundspeed Altitude Reporting Facility
EDT Latitude Longitude Course Direction KTS MPH feet Rate Location/Type
Fri 11:02:35 AM 41.9500 -87.9833 270° West 176 203 2,500  Level Chicago TRACON
Fri 11:03:36 AM 41.9500 -88.0500 270° West 208 239 4,700 2,000 Climbing Chicago TRACON
Fri 11:04:29 AM 41.9500 -88.1167 270° West 242 278 6,300 1,826 Climbing Chicago TRACON
Fri 11:04:45 AM 41.9458 -88.1461 259° West 237 273 6,800 2,231 Climbing Chicago Center
Fri 11:05:47 AM 41.9472 -88.2425 271° West 259 298 9,200 2,226 Climbing Chicago Center
Fri 11:06:00 AM 41.9668 -88.6735 270° West  Level FlightAware Approximate
Fri 11:06:49 AM 41.9458 -88.3431 269° West 270 311 11,400  Level Chicago Center
Fri 11:07:00 AM 41.9668 -88.8282 270° West  Level FlightAware Approximate
Fri 11:07:50 AM 41.9600 -88.4589 279° West 319 367 12,700  Level Chicago Center
Fri 11:08:00 AM 41.9669 -88.9862 270° West  Level FlightAware Approximate
Fri 11:08:52 AM 41.9864 -88.6003 284° West 331 381 15,400  Level Chicago Center
Fri 11:09:54 AM 42.0044 -88.7211 281° West 331 381 17,000 1,452 Climbing Chicago Center
Fri 11:10:56 AM 42.0314 -88.8497 286° West 356 410 18,400 1,355 Climbing Chicago Center
Fri 11:11:58 AM 42.0628 -88.9839 288° West 374 430 19,800 1,355 Climbing Chicago Center
Fri 11:13:00 AM 42.0747 -89.1356 276° West 377 434 21,200 1,355 Climbing Chicago Center
Fri 11:14:02 AM 42.0714 -89.2831 268° West 388 447 22,600 1,403 Climbing Chicago Center
Fri 11:15:04 AM 42.0708 -89.4264 270° West 384 442 24,100 1,500 Climbing Chicago Center
Fri 11:16:06 AM 42.0731 -89.5689 271° West 380 437 25,700 1,597 Climbing Chicago Center
Fri 11:17:08 AM 42.0881 -89.7303 277° West 376 433 27,400 1,452 Climbing Chicago Center
Fri 11:18:10 AM 42.1283 -89.8631 292° West 380 437 28,700 1,171 Climbing Chicago Center
Fri 11:19:11 AM 42.1642 -89.9800 292° West 380 437 29,800 1,171 Climbing Chicago Center
Fri 11:20:13 AM 42.2086 -90.1336 291° West 372 428 31,100 1,016 Climbing Chicago Center
Fri 11:21:15 AM 42.2475 -90.2633 292° West 374 430 31,900 435 Climbing Chicago Center
Fri 11:22:17 AM 42.2858 -90.3967 291° West 382 440 32,000 48 Climbing Chicago Center
Fri 11:23:19 AM 42.3272 -90.5375 292° West 401 461 32,000  Level Chicago Center
Fri 11:24:21 AM 42.3706 -90.6872 291° West 425 489 32,000  Level Chicago Center
Fri 11:25:23 AM 42.4150 -90.8367 292° West 431 496 32,000  Level Chicago Center
Fri 11:26:24 AM 42.4656 -91.0158 291° West 427 491 32,000  Level Chicago Center
Fri 11:27:26 AM 42.5075 -91.1628 291° West 423 487 32,000  Level Chicago Center
Fri 11:28:28 AM 42.5494 -91.3114 291° West 424 488 32,000  Level Chicago Center
Fri 11:29:30 AM 42.5908 -91.4603 291° West 423 487 32,000  Level Chicago Center
Fri 11:30:32 AM 42.6322 -91.6119 290° West 423 487 32,000  Level Chicago Center
Fri 11:31:34 AM 42.6758 -91.7661 291° West 427 491 32,000  Level Chicago Center
Fri 11:32:36 AM 42.7172 -91.9167 291° West 424 488 32,000  Level Chicago Center
Fri 11:33:38 AM 42.7664 -92.0967 290° West 423 487 32,000  Level Chicago Center
Fri 11:34:40 AM 42.8061 -92.2458 290° West 422 486 32,000  Level Chicago Center
Fri 11:35:42 AM 42.8458 -92.3947 290° West 422 486 32,000  Level Chicago Center
Fri 11:36:44 AM 42.8861 -92.5439 290° West 422 486 32,000  Level Chicago Center
Fri 11:37:46 AM 42.9256 -92.6939 290° West 424 488 32,000  Level Chicago Center
Fri 11:38:47 AM 42.9664 -92.8467 290° West 431 496 32,000  Level Chicago Center
Fri 11:39:49 AM 43.0156 -93.0306 290° West 433 498 32,000  Level Chicago Center
Fri 11:40:51 AM 43.0567 -93.1883 290° West 440 506 32,000  Level Chicago Center
Fri 11:42:03 AM 43.1003 -93.3811 287° West 445 512 32,000  Level Minneapolis Center
Fri 11:43:06 AM 43.1286 -93.5414 284° West 439 505 32,000  Level Minneapolis Center
Fri 11:44:07 AM 43.1581 -93.6928 285° West 421 484 32,000  Level Minneapolis Center
Fri 11:45:08 AM 43.1842 -93.8497 283° West 425 489 32,000  Level Minneapolis Center
Fri 11:46:11 AM 43.2178 -94.0417 284° West 434 499 32,000  Level Minneapolis Center
Fri 11:47:12 AM 43.2456 -94.2014 283° West 435 501 32,000  Level Minneapolis Center
Fri 11:48:15 AM 43.2717 -94.3583 283° West 428 493 32,000  Level Minneapolis Center
Fri 11:49:19 AM 43.2983 -94.5197 283° West 431 496 32,000  Level Minneapolis Center
Fri 11:50:20 AM 43.3253 -94.6833 283° West 437 503 32,000  Level Minneapolis Center
Fri 11:51:20 AM 43.3581 -94.8797 283° West 439 505 32,000  Level Minneapolis Center
Fri 11:52:24 AM 43.3839 -95.0433 282° West 439 505 32,000  Level Minneapolis Center
Fri 11:53:24 AM 43.4111 -95.2092 283° West 441 507 32,000  Level Minneapolis Center
Fri 11:54:28 AM 43.4372 -95.3750 282° West 443 510 32,000  Level Minneapolis Center
Fri 11:55:31 AM 43.4625 -95.5414 282° West 445 512 32,000  Level Minneapolis Center
Fri 11:56:32 AM 43.4889 -95.7083 282° West 445 512 32,000  Level Minneapolis Center
Fri 11:57:35 AM 43.5142 -95.8742 282° West 443 510 32,000  Level Minneapolis Center
Fri 11:58:35 AM 43.5447 -96.0736 282° West 443 510 32,000  Level Minneapolis Center
Fri 11:59:39 AM 43.5686 -96.2383 281° West 439 505 32,000  Level Minneapolis Center
Fri 12:00:39 PM 43.5936 -96.4047 282° West 440 506 32,000  Level Minneapolis Center
Fri 12:01:43 PM 43.6189 -96.5722 282° West 442 509 32,000  Level Minneapolis Center
Fri 12:02:44 PM 43.6431 -96.7408 281° West 444 511 32,000  Level Minneapolis Center
Fri 12:03:47 PM 43.6608 -96.9097 278° West 445 512 32,000 48 Level Minneapolis Center
Fri 12:04:48 PM 43.6753 -97.1150 276° West 447 514 32,100 537 Climbing Minneapolis Center
Fri 12:05:50 PM 43.6892 -97.2844 277° West 445 512 33,100 912 Climbing Minneapolis Center
Fri 12:06:53 PM 43.7011 -97.4517 276° West 440 506 34,000 435 Climbing Minneapolis Center
Fri 12:07:54 PM 43.7128 -97.6181 276° West 436 502 34,000  Level Minneapolis Center
Fri 12:08:58 PM 43.7253 -97.7861 276° West 438 504 34,000  Level Minneapolis Center
Fri 12:09:58 PM 43.7364 -97.9514 275° West 434 499 34,000  Level Minneapolis Center
Fri 12:11:01 PM 43.7486 -98.1164 276° West 433 498 34,000  Level Minneapolis Center
Fri 12:12:02 PM 43.7606 -98.3108 275° West 426 490 34,000  Level Minneapolis Center
Fri 12:13:06 PM 43.7711 -98.4736 275° West 426 490 34,000  Level Minneapolis Center
Fri 12:14:07 PM 43.7817 -98.6378 275° West 428 493 34,000  Level Minneapolis Center
Fri 12:15:08 PM 43.7933 -98.8156 275° West 436 502 34,000  Level Minneapolis Center
Fri 12:16:11 PM 43.8036 -98.9869 275° West 444 511 34,000  Level Minneapolis Center
Fri 12:17:14 PM 43.8133 -99.1594 275° West 447 514 34,000  Level Minneapolis Center
Fri 12:18:18 PM 43.8244 -99.3289 275° West 444 511 34,000  Level Minneapolis Center
Fri 12:19:18 PM 43.8358 -99.5308 275° West 439 505 34,000  Level Minneapolis Center
Fri 12:20:22 PM 43.8444 -99.6997 274° West 438 504 34,000  Level Minneapolis Center
Fri 12:21:22 PM 43.8547 -99.8717 275° West 443 510 34,000  Level Minneapolis Center
Fri 12:22:26 PM 43.8631 -100.0458 274° West 448 516 34,000  Level Minneapolis Center
Fri 12:23:27 PM 43.8717 -100.2186 274° West 449 517 34,000  Level Minneapolis Center
Fri 12:24:30 PM 43.8792 -100.3942 273° West 452 520 34,000  Level Minneapolis Center
Fri 12:25:30 PM 43.8883 -100.5700 274° West 454 522 34,000  Level Minneapolis Center
Fri 12:26:34 PM 43.8975 -100.7800 274° West 454 522 34,000  Level Minneapolis Center
Fri 12:27:34 PM 43.9050 -100.9542 273° West 453 521 34,000  Level Minneapolis Center
Fri 12:28:38 PM 43.9128 -101.1294 274° West 454 522 34,000  Level Minneapolis Center
Fri 12:29:38 PM 43.9200 -101.3028 273° West 452 520 34,000  Level Minneapolis Center
Fri 12:30:41 PM 43.9256 -101.4775 273° West 452 520 34,000  Level Minneapolis Center
Fri 12:31:45 PM 43.9319 -101.6528 273° West 453 521 34,000  Level Minneapolis Center
Fri 12:32:46 PM 43.9394 -101.8642 273° West 455 524 34,000  Level Minneapolis Center
Fri 12:33:47 PM 43.9450 -102.0411 273° West 456 525 34,000  Level Minneapolis Center
Fri 12:34:50 PM 43.9514 -102.2192 273° West 459 528 34,000  Level Minneapolis Center
Fri 12:35:51 PM 43.9569 -102.3967 273° West 463 533 34,000  Level Denver Center
Fri 12:36:53 PM 43.9625 -102.5758 273° West 465 535 34,000  Level Denver Center
Fri 12:37:55 PM 43.9686 -102.7564 273° West 466 536 34,000  Level Denver Center
Fri 12:38:57 PM 43.9753 -102.9653 273° West 465 535 34,000  Level Denver Center
Fri 12:39:59 PM 43.9789 -103.1383 272° West 467 537 34,000  Level Denver Center
Fri 12:41:01 PM 43.9825 -103.3378 272° West 465 535 34,000  Level Denver Center
Fri 12:42:03 PM 43.9853 -103.5092 271° West 466 536 34,000  Level Denver Center
Fri 12:43:05 PM 43.9886 -103.7106 271° West 469 540 34,000  Level Denver Center
Fri 12:44:07 PM 43.9917 -103.8856 271° West 474 545 34,000  Level Denver Center
Fri 12:45:09 PM 43.9944 -104.0900 271° West 477 549 34,000  Level Denver Center
Fri 12:46:11 PM 43.9961 -104.2653 271° West 477 549 34,000  Level Denver Center
Fri 12:47:13 PM 43.9992 -104.4694 271° West 476 548 34,000  Level Denver Center
Fri 12:48:15 PM 44.0008 -104.6472 271° West 481 554 34,000  Level Denver Center
Fri 12:49:17 PM 44.0017 -104.8278 270° West 487 560 34,000  Level Denver Center
Fri 12:50:20 PM 44.0028 -105.0417 270° West 495 570 34,000  Level Denver Center
Fri 12:51:22 PM 44.0036 -105.2292 270° West 505 581 34,000  Level Denver Center
Fri 12:52:24 PM 44.0047 -105.4472 270° West 507 583 34,000 145 Level Denver Center
Fri 12:53:26 PM 44.0053 -105.6394 270° West 515 593 34,300 726 Climbing Denver Center
Fri 12:54:28 PM 44.0053 -105.8592 270° West 514 592 35,500 823 Climbing Denver Center
Fri 12:55:30 PM 44.0039 -106.0406 269° West 499 574 36,000 309 Climbing Denver Center
Fri 12:56:05 PM 44.0028 -106.1758 269° West 497 572 36,000  Level Salt Lake Center
Fri 12:57:07 PM 43.9992 -106.3514 268° West 480 552 36,000  Level Salt Lake Center
Fri 12:57:34 PM 43.9997 -106.4219 271° West 467 537 36,000  Level Denver Center
Fri 12:58:36 PM 44.0069 -106.6172 273° West 457 526 36,000  Level Denver Center
Fri 12:59:11 PM 44.0100 -106.7183 272° West 461 531 36,000  Level Salt Lake Center
Fri 01:00:13 PM 44.0158 -106.8903 273° West 465 535 36,000  Level Salt Lake Center
Fri 01:00:42 PM 44.0200 -106.9764 274° West 466 536 36,000  Level Denver Center
Fri 01:01:44 PM 44.0278 -107.1814 273° West 473 544 36,000  Level Denver Center
Fri 01:02:16 PM 44.0281 -107.2706 270° West 474 545 36,000  Level Salt Lake Center
Fri 01:03:18 PM 44.0339 -107.4731 272° West 469 540 36,000  Level Salt Lake Center
Fri 01:04:20 PM 44.0417 -107.6447 274° West 466 536 36,000  Level Salt Lake Center
Fri 01:05:22 PM 44.0472 -107.8172 273° West 465 535 36,000  Level Salt Lake Center
Fri 01:06:24 PM 44.0517 -108.0206 272° West 469 540 36,000  Level Salt Lake Center
Fri 01:07:25 PM 44.0569 -108.1956 272° West 472 543 36,000  Level Salt Lake Center
Fri 01:08:27 PM 44.0622 -108.3986 272° West 469 540 36,000  Level Salt Lake Center
Fri 01:09:29 PM 44.0669 -108.5722 272° West 470 541 36,000  Level Salt Lake Center
Fri 01:10:31 PM 44.0703 -108.7728 271° West 466 536 36,000  Level Salt Lake Center
Fri 01:11:33 PM 44.0739 -108.9442 272° West 464 534 36,000  Level Salt Lake Center
Fri 01:12:34 PM 44.0778 -109.1167 272° West 465 535 36,000  Level Salt Lake Center
Fri 01:13:36 PM 44.0803 -109.3169 271° West 465 535 36,000  Level Salt Lake Center
Fri 01:14:38 PM 44.0836 -109.4869 272° West 460 529 36,000  Level Salt Lake Center
Fri 01:15:40 PM 44.0853 -109.6811 271° West 454 522 36,000  Level Salt Lake Center
Fri 01:16:41 PM 44.0875 -109.8511 271° West 457 526 36,000  Level Salt Lake Center
Fri 01:17:43 PM 44.0897 -110.0467 271° West 454 522 36,000  Level Salt Lake Center
Fri 01:18:45 PM 44.0908 -110.2150 271° West 454 522 36,000  Level Salt Lake Center
Fri 01:19:47 PM 44.0922 -110.3825 271° West 453 521 36,000  Level Salt Lake Center
Fri 01:20:48 PM 44.0936 -110.5750 271° West 448 516 36,000  Level Salt Lake Center
Fri 01:21:50 PM 44.0928 -110.7417 270° West 449 517 36,000  Level Salt Lake Center
Fri 01:22:52 PM 44.0933 -110.9347 270° West 447 514 36,000  Level Salt Lake Center
Fri 01:23:54 PM 44.0939 -111.1000 270° West 446 513 36,000  Level Salt Lake Center
Fri 01:24:55 PM 44.0936 -111.2622 270° West 439 505 36,000  Level Salt Lake Center
Fri 01:25:57 PM 44.0933 -111.4536 270° West 441 507 36,000  Level Salt Lake Center
Fri 01:26:59 PM 44.0925 -111.6175 270° West 441 507 36,000  Level Salt Lake Center
Fri 01:28:01 PM 44.0922 -111.8075 270° West 439 505 36,000  Level Salt Lake Center
Fri 01:29:03 PM 44.0908 -111.9703 269° West 438 504 36,000  Level Salt Lake Center
Fri 01:30:04 PM 44.0881 -112.1303 269° West 433 498 36,000  Level Salt Lake Center
Fri 01:31:06 PM 44.0767 -112.3153 265° West 429 494 36,000  Level Salt Lake Center
Fri 01:32:08 PM 44.0572 -112.4742 260° West 434 499 36,000  Level Salt Lake Center
Fri 01:33:10 PM 44.0361 -112.6558 261° West 426 490 36,000  Level Salt Lake Center
Fri 01:34:12 PM 44.0164 -112.8092 260° West 421 484 36,000  Level Salt Lake Center
Fri 01:35:14 PM 43.9969 -112.9864 261° West 417 480 36,000  Level Salt Lake Center
Fri 01:36:16 PM 43.9808 -113.1367 262° West 413 475 36,000  Level Salt Lake Center
Fri 01:37:18 PM 43.9569 -113.3086 259° West 407 468 36,000  Level Salt Lake Center
Fri 01:38:20 PM 43.9397 -113.4536 261° West 401 461 36,000  Level Salt Lake Center
Fri 01:39:22 PM 43.9189 -113.6264 261° West 408 470 36,000  Level Salt Lake Center
Fri 01:40:24 PM 43.8994 -113.7736 260° West 405 466 36,000  Level Salt Lake Center
Fri 01:41:26 PM 43.8808 -113.9319 261° West 416 479 36,000 -339 Level Salt Lake Center
Fri 01:42:28 PM 43.8561 -114.1106 259° West 423 487 35,300 -1,258 Descending Salt Lake Center
Fri 01:43:30 PM 43.8381 -114.2589 260° West 406 467 33,400 -2,177 Descending Salt Lake Center
Fri 01:44:32 PM 43.8169 -114.4217 260° West 386 444 30,800 -2,371 Descending Salt Lake Center
Fri 01:45:34 PM 43.7975 -114.5672 260° West 397 457 28,500 -2,226 Descending Salt Lake Center
Fri 01:46:36 PM 43.7769 -114.7147 259° West 404 465 26,200 -2,419 Descending Salt Lake Center
Fri 01:47:38 PM 43.7556 -114.8786 260° West 382 440 23,500 -2,419 Descending Salt Lake Center
Fri 01:48:40 PM 43.7369 -115.0117 259° West 367 422 21,200 -2,516 Descending Salt Lake Center
Fri 01:49:42 PM 43.7178 -115.1631 260° West 356 410 18,300 -2,468 Descending Salt Lake Center
Fri 01:50:44 PM 43.7000 -115.2903 259° West 351 404 16,100 -1,935 Descending Salt Lake Center
Fri 01:51:46 PM 43.6722 -115.4286 255° West 344 396 14,300 -1,645 Descending Salt Lake Center
Fri 01:52:48 PM 43.6358 -115.5536 248° West 340 391 12,700 -1,306 Descending Salt Lake Center
Fri 01:53:50 PM 43.6006 -115.6722 248° West 321 369 11,600 -1,161 Descending Salt Lake Center
Fri 01:54:52 PM 43.5708 -115.7772 249° West 286 329 10,300 -1,306 Descending Salt Lake Center
Fri 01:55:54 PM 43.5403 -115.8792 248° West 277 319 8,900 -1,113 Descending Salt Lake Center
Fri 01:56:56 PM 43.5161 -115.9567 247° West 232 267 8,000 -1,258 Descending Salt Lake Center
Fri 01:57:58 PM 43.5006 -116.0253 253° West 186 214 6,300 -1,452 Descending Salt Lake Center
Fri 01:59:00 PM 43.5153 -116.0811 290° West 150 173 5,000 -1,258 Descending Salt Lake Center

Login

Don't have an account? Register now (free) for customized features, flight alerts, and more!